MDT,Max TemperatureF,Mean TemperatureF,Min TemperatureF,Max Dew PointF,MeanDew PointF,Min DewpointF,Max Humidity, Mean Humidity, Min Humidity, Max Sea Level PressureIn, Mean Sea Level PressureIn, Min Sea Level PressureIn, Max VisibilityMiles, Mean VisibilityMiles, Min VisibilityMiles, Max Wind SpeedMPH, Mean Wind SpeedMPH, Max Gust SpeedMPH,PrecipitationIn, CloudCover, Events, WindDirDegrees
2013-3-1,56,36,16,20,12,0,66,39,22,30.42,30.38,30.34,10,10,10,25,11,37,0.00,0,,336
2013-3-2,66,41,16,22,15,8,81,45,11,30.49,30.39,30.29,10,10,10,15,5,21,0.00,0,,322
2013-3-3,64,40,17,26,13,-1,66,35,8,30.29,30.09,29.97,10,10,10,26,9,37,0.00,1,,286
2013-3-4,58,42,27,26,19,14,59,35,20,30.18,30.00,29.93,10,10,10,28,13,37,0.00,3,,292
2013-3-5,61,38,15,17,14,9,79,41,15,30.34,30.24,30.18,10,10,10,18,8,28,0.00,0,,137
2013-3-6,67,49,31,23,15,3,54,30,12,30.20,30.12,30.04,10,10,10,21,5,32,0.00,1,,216
2013-3-7,69,44,20,21,10,2,52,29,8,30.14,30.06,29.97,10,10,10,15,6,23,0.00,1,,258
2013-3-8,53,38,22,41,25,5,95,62,32,30.04,29.92,29.81,10,10,1,25,5,39,0.02,5,Rain-Snow-Thunderstorm,169
2013-3-9,41,34,27,27,23,19,80,64,43,30.01,29.88,29.81,10,10,10,21,12,30,0.00,6,,284
2013-3-10,50,36,21,28,18,10,78,51,20,30.24,30.12,30.01,10,10,10,20,10,32,0.00,2,,329
2013-3-11,61,36,11,22,13,7,88,46,13,30.25,30.18,30.09,10,10,10,17,7,26,0.00,0,,320
2013-3-12,64,41,18,23,16,10,71,41,17,30.33,30.25,30.18,10,10,10,15,5,20,0.00,0,,330
2013-3-13,69,46,22,24,17,12,75,39,12,30.43,30.37,30.31,10,10,10,18,8,23,0.00,0,,330
2013-3-14,73,49,25,23,13,2,64,31,7,30.46,30.38,30.32,10,10,10,15,6,17,0.00,0,,318
2013-3-15,77,50,23,15,10,5,45,22,7,30.36,30.22,30.10,10,10,10,17,8,25,0.00,0,,305
2013-3-16,70,52,34,39,21,12,79,33,13,30.11,30.01,29.90,10,10,10,22,6,40,0.00,2,Rain,299
2013-3-17,65,46,26,37,18,-4,98,43,7,29.98,29.91,29.82,10,10,10,31,10,47,0.00,1,,290
2013-3-18,65,46,26,8,3,-3,38,18,9,30.10,30.03,29.97,10,10,10,29,11,46,0.00,0,,298
2013-3-19,59,45,31,23,14,1,51,29,18,30.27,30.13,30.06,10,10,10,21,7,29,0.00,3,,325
2013-3-20,62,40,19,24,16,8,64,38,18,30.29,30.16,29.99,10,10,10,15,6,22,0.00,2,,276
2013-3-21,68,54,39,30,18,3,47,27,10,29.98,29.86,29.78,10,10,7,29,14,48,0.00,1,,302
2013-3-22,63,41,19,28,12,3,48,28,12,29.89,29.83,29.73,10,10,10,32,8,43,0.00,1,,280
2013-3-23,47,34,21,29,-3,-20,51,21,8,30.10,29.92,29.80,10,10,7,32,16,44,0.00,0,,314
2013-3-24,53,32,11,1,-8,-17,29,18,10,30.12,30.05,29.94,10,10,10,24,7,34,0.00,1,,326
2013-3-25,57,34,12,8,1,-11,41,25,14,30.20,30.14,30.07,10,10,10,20,6,26,0.00,1,,332
2013-3-26,65,40,16,10,4,-4,46,24,8,30.20,30.12,30.01,10,10,10,18,6,26,0.00,0,,204
2013-3-27,68,46,24,12,8,3,41,21,9,30.16,30.11,30.07,10,10,10,20,6,32,0.00,0,,233
2013-3-28,70,51,32,15,12,7,35,22,11,30.22,30.18,30.13,10,10,10,22,4,31,0.00,1,,267
2013-3-29,70,52,35,23,14,10,38,24,11,30.29,30.23,30.16,10,10,10,17,5,36,0.00,2,,309
2013-3-30,70,48,25,24,16,7,49,28,13,30.28,30.21,30.12,10,10,10,16,6,25,0.00,3,,309
2013-3-31,70,48,27,26,21,15,62,34,14,30.21,30.14,30.06,10,10,10,12,4,17,0.00,3,,317